sensor_id;sensor_type;location;lat;lon;timestamp;P1;durP1;ratioP1;P2;durP2;ratioP2
74523;SDS011;63074;44.696;10.358;2023-07-29T00:02:15;3.78;;;2.03;;
74523;SDS011;63074;44.696;10.358;2023-07-29T00:04:41;4.95;;;2.10;;
74523;SDS011;63074;44.696;10.358;2023-07-29T00:07:07;4.45;;;2.03;;
74523;SDS011;63074;44.696;10.358;2023-07-29T00:09:33;4.00;;;2.17;;
74523;SDS011;63074;44.696;10.358;2023-07-29T00:11:59;4.88;;;2.03;;
74523;SDS011;63074;44.696;10.358;2023-07-29T00:14:25;4.10;;;2.30;;
74523;SDS011;63074;44.696;10.358;2023-07-29T00:16:51;2.63;;;1.95;;
74523;SDS011;63074;44.696;10.358;2023-07-29T00:19:17;4.55;;;2.22;;
74523;SDS011;63074;44.696;10.358;2023-07-29T00:21:43;3.17;;;2.17;;
74523;SDS011;63074;44.696;10.358;2023-07-29T00:26:35;3.00;;;2.25;;
74523;SDS011;63074;44.696;10.358;2023-07-29T00:29:01;3.45;;;1.90;;
74523;SDS011;63074;44.696;10.358;2023-07-29T00:31:27;4.38;;;2.00;;
74523;SDS011;63074;44.696;10.358;2023-07-29T00:33:53;3.03;;;2.10;;
74523;SDS011;63074;44.696;10.358;2023-07-29T00:36:19;4.07;;;1.88;;
74523;SDS011;63074;44.696;10.358;2023-07-29T00:38:45;3.67;;;1.88;;
74523;SDS011;63074;44.696;10.358;2023-07-29T00:41:11;4.70;;;1.77;;
74523;SDS011;63074;44.696;10.358;2023-07-29T00:43:38;3.85;;;1.88;;
74523;SDS011;63074;44.696;10.358;2023-07-29T00:46:04;4.05;;;2.05;;
74523;SDS011;63074;44.696;10.358;2023-07-29T00:48:31;4.70;;;1.83;;
74523;SDS011;63074;44.696;10.358;2023-07-29T00:50:57;3.78;;;2.13;;
74523;SDS011;63074;44.696;10.358;2023-07-29T00:53:23;3.40;;;2.10;;
74523;SDS011;63074;44.696;10.358;2023-07-29T00:55:49;3.72;;;2.17;;
74523;SDS011;63074;44.696;10.358;2023-07-29T00:58:15;2.55;;;1.88;;
74523;SDS011;63074;44.696;10.358;2023-07-29T01:00:41;4.28;;;1.80;;
74523;SDS011;63074;44.696;10.358;2023-07-29T01:03:08;3.97;;;2.25;;
74523;SDS011;63074;44.696;10.358;2023-07-29T01:05:45;3.85;;;1.90;;
74523;SDS011;63074;44.696;10.358;2023-07-29T01:13:42;3.92;;;1.95;;
74523;SDS011;63074;44.696;10.358;2023-07-29T01:18:36;5.30;;;2.78;;
74523;SDS011;63074;44.696;10.358;2023-07-29T01:21:03;5.20;;;2.08;;
74523;SDS011;63074;44.696;10.358;2023-07-29T01:23:30;4.72;;;2.67;;
74523;SDS011;63074;44.696;10.358;2023-07-29T01:25:56;4.60;;;1.80;;
74523;SDS011;63074;44.696;10.358;2023-07-29T01:28:23;6.32;;;1.88;;
74523;SDS011;63074;44.696;10.358;2023-07-29T01:30:49;4.47;;;2.10;;
74523;SDS011;63074;44.696;10.358;2023-07-29T01:38:35;3.45;;;1.48;;
74523;SDS011;63074;44.696;10.358;2023-07-29T01:41:02;4.18;;;2.28;;
74523;SDS011;63074;44.696;10.358;2023-07-29T01:43:29;4.15;;;1.83;;
74523;SDS011;63074;44.696;10.358;2023-07-29T01:45:55;3.92;;;2.55;;
74523;SDS011;63074;44.696;10.358;2023-07-29T01:48:21;3.92;;;2.25;;
74523;SDS011;63074;44.696;10.358;2023-07-29T01:50:48;3.30;;;2.28;;
74523;SDS011;63074;44.696;10.358;2023-07-29T01:53:14;3.33;;;1.80;;
74523;SDS011;63074;44.696;10.358;2023-07-29T01:55:40;3.28;;;1.95;;
74523;SDS011;63074;44.696;10.358;2023-07-29T01:58:06;5.03;;;2.55;;
74523;SDS011;63074;44.696;10.358;2023-07-29T02:00:32;5.45;;;2.45;;
74523;SDS011;63074;44.696;10.358;2023-07-29T02:02:58;3.80;;;2.50;;
74523;SDS011;63074;44.696;10.358;2023-07-29T02:05:24;3.58;;;2.50;;
74523;SDS011;63074;44.696;10.358;2023-07-29T02:07:50;4.70;;;2.38;;
74523;SDS011;63074;44.696;10.358;2023-07-29T02:10:17;3.53;;;2.28;;
74523;SDS011;63074;44.696;10.358;2023-07-29T02:12:43;3.70;;;2.22;;
74523;SDS011;63074;44.696;10.358;2023-07-29T02:15:09;3.35;;;2.03;;
74523;SDS011;63074;44.696;10.358;2023-07-29T02:17:35;5.78;;;2.47;;
74523;SDS011;63074;44.696;10.358;2023-07-29T02:20:01;4.10;;;2.17;;
74523;SDS011;63074;44.696;10.358;2023-07-29T02:22:28;4.57;;;2.35;;
74523;SDS011;63074;44.696;10.358;2023-07-29T02:24:54;3.70;;;2.30;;
74523;SDS011;63074;44.696;10.358;2023-07-29T02:27:20;4.40;;;2.22;;
74523;SDS011;63074;44.696;10.358;2023-07-29T02:29:46;4.78;;;1.85;;
74523;SDS011;63074;44.696;10.358;2023-07-29T02:32:12;4.47;;;2.58;;
74523;SDS011;63074;44.696;10.358;2023-07-29T02:34:38;3.40;;;2.28;;
74523;SDS011;63074;44.696;10.358;2023-07-29T02:37:05;3.97;;;2.30;;
74523;SDS011;63074;44.696;10.358;2023-07-29T02:39:31;4.68;;;1.95;;
74523;SDS011;63074;44.696;10.358;2023-07-29T02:41:57;4.53;;;2.40;;
74523;SDS011;63074;44.696;10.358;2023-07-29T02:44:23;4.35;;;3.38;;
74523;SDS011;63074;44.696;10.358;2023-07-29T02:46:49;5.07;;;3.08;;
74523;SDS011;63074;44.696;10.358;2023-07-29T02:49:17;4.15;;;3.13;;
74523;SDS011;63074;44.696;10.358;2023-07-29T02:51:43;5.13;;;3.38;;
74523;SDS011;63074;44.696;10.358;2023-07-29T02:54:09;4.07;;;3.30;;
74523;SDS011;63074;44.696;10.358;2023-07-29T02:56:35;4.38;;;3.45;;
74523;SDS011;63074;44.696;10.358;2023-07-29T02:59:01;5.55;;;3.13;;
74523;SDS011;63074;44.696;10.358;2023-07-29T03:01:27;3.60;;;2.88;;
74523;SDS011;63074;44.696;10.358;2023-07-29T03:03:53;4.47;;;3.05;;
74523;SDS011;63074;44.696;10.358;2023-07-29T03:06:19;5.95;;;3.85;;
74523;SDS011;63074;44.696;10.358;2023-07-29T03:08:45;6.43;;;2.90;;
74523;SDS011;63074;44.696;10.358;2023-07-29T03:11:12;6.22;;;3.25;;
74523;SDS011;63074;44.696;10.358;2023-07-29T03:13:39;7.50;;;3.72;;
74523;SDS011;63074;44.696;10.358;2023-07-29T03:16:08;4.50;;;3.22;;
74523;SDS011;63074;44.696;10.358;2023-07-29T03:18:35;4.93;;;3.42;;
74523;SDS011;63074;44.696;10.358;2023-07-29T03:21:01;4.47;;;2.92;;
74523;SDS011;63074;44.696;10.358;2023-07-29T03:23:28;4.90;;;3.30;;
74523;SDS011;63074;44.696;10.358;2023-07-29T03:25:57;4.75;;;3.13;;
74523;SDS011;63074;44.696;10.358;2023-07-29T03:28:27;5.00;;;2.88;;
74523;SDS011;63074;44.696;10.358;2023-07-29T03:30:54;5.50;;;3.08;;
74523;SDS011;63074;44.696;10.358;2023-07-29T03:33:20;5.85;;;3.15;;
74523;SDS011;63074;44.696;10.358;2023-07-29T03:35:46;5.00;;;2.97;;
74523;SDS011;63074;44.696;10.358;2023-07-29T03:38:12;5.40;;;3.38;;
74523;SDS011;63074;44.696;10.358;2023-07-29T03:40:39;4.60;;;3.75;;
74523;SDS011;63074;44.696;10.358;2023-07-29T03:43:05;5.68;;;3.45;;
74523;SDS011;63074;44.696;10.358;2023-07-29T03:45:31;4.35;;;3.13;;
74523;SDS011;63074;44.696;10.358;2023-07-29T03:47:57;6.75;;;3.85;;
74523;SDS011;63074;44.696;10.358;2023-07-29T03:50:23;7.85;;;4.00;;
74523;SDS011;63074;44.696;10.358;2023-07-29T03:52:50;6.82;;;3.72;;
74523;SDS011;63074;44.696;10.358;2023-07-29T03:55:16;5.35;;;4.25;;
74523;SDS011;63074;44.696;10.358;2023-07-29T03:57:42;7.97;;;4.22;;
74523;SDS011;63074;44.696;10.358;2023-07-29T04:00:08;7.65;;;4.50;;
74523;SDS011;63074;44.696;10.358;2023-07-29T04:02:34;8.55;;;4.22;;
74523;SDS011;63074;44.696;10.358;2023-07-29T04:05:02;6.88;;;3.88;;
74523;SDS011;63074;44.696;10.358;2023-07-29T04:07:29;5.00;;;3.80;;
74523;SDS011;63074;44.696;10.358;2023-07-29T04:09:55;8.70;;;3.65;;
74523;SDS011;63074;44.696;10.358;2023-07-29T04:12:22;6.05;;;3.90;;
74523;SDS011;63074;44.696;10.358;2023-07-29T04:14:48;7.07;;;4.40;;
74523;SDS011;63074;44.696;10.358;2023-07-29T04:17:14;6.03;;;3.90;;
74523;SDS011;63074;44.696;10.358;2023-07-29T04:19:40;5.85;;;3.70;;
74523;SDS011;63074;44.696;10.358;2023-07-29T04:22:06;5.47;;;3.33;;
74523;SDS011;63074;44.696;10.358;2023-07-29T04:24:33;6.15;;;3.63;;
74523;SDS011;63074;44.696;10.358;2023-07-29T04:26:59;5.97;;;3.53;;
74523;SDS011;63074;44.696;10.358;2023-07-29T04:29:25;7.00;;;3.55;;
74523;SDS011;63074;44.696;10.358;2023-07-29T04:31:51;7.55;;;4.55;;
74523;SDS011;63074;44.696;10.358;2023-07-29T04:34:18;7.07;;;4.45;;
74523;SDS011;63074;44.696;10.358;2023-07-29T04:36:44;7.22;;;3.97;;
74523;SDS011;63074;44.696;10.358;2023-07-29T04:41:36;5.85;;;4.25;;
74523;SDS011;63074;44.696;10.358;2023-07-29T04:44:02;9.23;;;3.75;;
74523;SDS011;63074;44.696;10.358;2023-07-29T04:46:29;6.65;;;4.03;;
74523;SDS011;63074;44.696;10.358;2023-07-29T04:48:55;5.95;;;3.90;;
74523;SDS011;63074;44.696;10.358;2023-07-29T04:51:21;6.47;;;3.72;;
74523;SDS011;63074;44.696;10.358;2023-07-29T04:53:47;6.22;;;3.72;;
74523;SDS011;63074;44.696;10.358;2023-07-29T04:56:13;6.97;;;3.85;;
74523;SDS011;63074;44.696;10.358;2023-07-29T04:58:39;6.93;;;3.55;;
74523;SDS011;63074;44.696;10.358;2023-07-29T05:01:05;7.47;;;3.45;;
74523;SDS011;63074;44.696;10.358;2023-07-29T05:03:31;4.40;;;3.13;;
74523;SDS011;63074;44.696;10.358;2023-07-29T05:05:57;3.80;;;2.80;;
74523;SDS011;63074;44.696;10.358;2023-07-29T05:08:25;4.95;;;2.85;;
74523;SDS011;63074;44.696;10.358;2023-07-29T05:10:51;5.35;;;3.20;;
74523;SDS011;63074;44.696;10.358;2023-07-29T05:13:17;5.50;;;3.05;;
74523;SDS011;63074;44.696;10.358;2023-07-29T05:15:43;4.50;;;3.55;;
74523;SDS011;63074;44.696;10.358;2023-07-29T05:18:09;5.22;;;3.00;;
74523;SDS011;63074;44.696;10.358;2023-07-29T05:20:35;4.22;;;2.72;;
74523;SDS011;63074;44.696;10.358;2023-07-29T05:23:01;5.47;;;2.75;;
74523;SDS011;63074;44.696;10.358;2023-07-29T05:25:28;4.60;;;2.78;;
74523;SDS011;63074;44.696;10.358;2023-07-29T05:27:54;4.70;;;2.78;;
74523;SDS011;63074;44.696;10.358;2023-07-29T05:30:20;3.92;;;2.75;;
74523;SDS011;63074;44.696;10.358;2023-07-29T05:32:46;5.57;;;2.90;;
74523;SDS011;63074;44.696;10.358;2023-07-29T05:35:13;4.85;;;2.70;;
74523;SDS011;63074;44.696;10.358;2023-07-29T05:37:39;4.25;;;3.03;;
74523;SDS011;63074;44.696;10.358;2023-07-29T05:40:06;4.95;;;3.08;;
74523;SDS011;63074;44.696;10.358;2023-07-29T05:42:32;4.90;;;2.50;;
74523;SDS011;63074;44.696;10.358;2023-07-29T05:44:58;4.55;;;2.28;;
74523;SDS011;63074;44.696;10.358;2023-07-29T05:47:25;3.75;;;2.63;;
74523;SDS011;63074;44.696;10.358;2023-07-29T05:49:51;4.40;;;2.58;;
74523;SDS011;63074;44.696;10.358;2023-07-29T05:52:17;5.00;;;2.25;;
74523;SDS011;63074;44.696;10.358;2023-07-29T05:54:44;4.63;;;2.72;;
74523;SDS011;63074;44.696;10.358;2023-07-29T05:59:35;5.60;;;2.38;;
74523;SDS011;63074;44.696;10.358;2023-07-29T06:02:02;4.75;;;3.05;;
74523;SDS011;63074;44.696;10.358;2023-07-29T06:04:28;4.72;;;2.60;;
74523;SDS011;63074;44.696;10.358;2023-07-29T06:06:54;5.22;;;2.60;;
74523;SDS011;63074;44.696;10.358;2023-07-29T06:09:21;6.18;;;2.67;;
74523;SDS011;63074;44.696;10.358;2023-07-29T06:11:47;4.63;;;2.67;;
74523;SDS011;63074;44.696;10.358;2023-07-29T06:14:16;6.03;;;2.85;;
74523;SDS011;63074;44.696;10.358;2023-07-29T06:16:42;3.75;;;2.95;;
74523;SDS011;63074;44.696;10.358;2023-07-29T06:19:08;5.07;;;2.75;;
74523;SDS011;63074;44.696;10.358;2023-07-29T06:21:34;4.70;;;2.88;;
74523;SDS011;63074;44.696;10.358;2023-07-29T06:24:01;4.53;;;3.00;;
74523;SDS011;63074;44.696;10.358;2023-07-29T06:26:28;6.60;;;2.92;;
74523;SDS011;63074;44.696;10.358;2023-07-29T06:28:54;4.53;;;2.78;;
74523;SDS011;63074;44.696;10.358;2023-07-29T06:31:20;8.50;;;3.58;;
74523;SDS011;63074;44.696;10.358;2023-07-29T06:33:46;5.60;;;3.33;;
74523;SDS011;63074;44.696;10.358;2023-07-29T06:36:12;6.35;;;3.65;;
74523;SDS011;63074;44.696;10.358;2023-07-29T06:38:38;6.05;;;3.35;;
74523;SDS011;63074;44.696;10.358;2023-07-29T06:41:04;8.20;;;4.20;;
74523;SDS011;63074;44.696;10.358;2023-07-29T06:43:30;7.15;;;3.40;;
74523;SDS011;63074;44.696;10.358;2023-07-29T06:45:57;4.53;;;3.42;;
74523;SDS011;63074;44.696;10.358;2023-07-29T06:48:23;5.57;;;3.78;;
74523;SDS011;63074;44.696;10.358;2023-07-29T06:50:49;7.47;;;3.03;;
74523;SDS011;63074;44.696;10.358;2023-07-29T06:53:16;5.00;;;2.95;;
74523;SDS011;63074;44.696;10.358;2023-07-29T06:55:42;5.40;;;3.28;;
74523;SDS011;63074;44.696;10.358;2023-07-29T06:58:08;5.72;;;3.15;;
74523;SDS011;63074;44.696;10.358;2023-07-29T07:00:35;4.72;;;2.67;;
74523;SDS011;63074;44.696;10.358;2023-07-29T07:03:01;5.50;;;3.33;;
74523;SDS011;63074;44.696;10.358;2023-07-29T07:05:27;4.88;;;3.13;;
74523;SDS011;63074;44.696;10.358;2023-07-29T07:07:53;4.57;;;2.60;;
74523;SDS011;63074;44.696;10.358;2023-07-29T07:10:19;5.07;;;2.83;;
74523;SDS011;63074;44.696;10.358;2023-07-29T07:12:45;7.22;;;3.42;;
74523;SDS011;63074;44.696;10.358;2023-07-29T07:15:13;6.38;;;2.95;;
74523;SDS011;63074;44.696;10.358;2023-07-29T07:17:39;4.60;;;2.50;;
74523;SDS011;63074;44.696;10.358;2023-07-29T07:20:05;4.10;;;2.75;;
74523;SDS011;63074;44.696;10.358;2023-07-29T07:22:31;4.30;;;2.40;;
74523;SDS011;63074;44.696;10.358;2023-07-29T07:24:58;4.13;;;2.75;;
74523;SDS011;63074;44.696;10.358;2023-07-29T07:27:24;5.53;;;3.20;;
74523;SDS011;63074;44.696;10.358;2023-07-29T07:29:50;4.85;;;2.83;;
74523;SDS011;63074;44.696;10.358;2023-07-29T07:32:16;4.65;;;2.65;;
74523;SDS011;63074;44.696;10.358;2023-07-29T07:34:42;5.38;;;2.92;;
74523;SDS011;63074;44.696;10.358;2023-07-29T07:37:08;4.15;;;2.60;;
74523;SDS011;63074;44.696;10.358;2023-07-29T07:39:34;3.65;;;2.67;;
74523;SDS011;63074;44.696;10.358;2023-07-29T07:42:00;4.32;;;3.08;;
74523;SDS011;63074;44.696;10.358;2023-07-29T07:44:26;7.32;;;3.08;;
74523;SDS011;63074;44.696;10.358;2023-07-29T07:46:52;5.90;;;2.90;;
74523;SDS011;63074;44.696;10.358;2023-07-29T07:49:18;7.15;;;3.13;;
74523;SDS011;63074;44.696;10.358;2023-07-29T07:51:45;4.68;;;3.08;;
74523;SDS011;63074;44.696;10.358;2023-07-29T07:56:36;4.63;;;2.75;;
74523;SDS011;63074;44.696;10.358;2023-07-29T07:59:02;6.60;;;2.97;;
74523;SDS011;63074;44.696;10.358;2023-07-29T08:01:34;3.60;;;2.50;;
74523;SDS011;63074;44.696;10.358;2023-07-29T08:04:01;5.50;;;3.15;;
74523;SDS011;63074;44.696;10.358;2023-07-29T08:06:27;5.18;;;3.42;;
74523;SDS011;63074;44.696;10.358;2023-07-29T08:08:53;5.82;;;2.90;;
74523;SDS011;63074;44.696;10.358;2023-07-29T08:11:19;6.38;;;3.13;;
74523;SDS011;63074;44.696;10.358;2023-07-29T08:13:45;7.95;;;3.17;;
74523;SDS011;63074;44.696;10.358;2023-07-29T08:18:37;3.65;;;2.85;;
74523;SDS011;63074;44.696;10.358;2023-07-29T08:21:03;4.97;;;2.53;;
74523;SDS011;63074;44.696;10.358;2023-07-29T08:23:33;5.43;;;2.65;;
74523;SDS011;63074;44.696;10.358;2023-07-29T08:26:01;2.70;;;2.17;;
74523;SDS011;63074;44.696;10.358;2023-07-29T08:28:27;4.57;;;2.63;;
74523;SDS011;63074;44.696;10.358;2023-07-29T08:30:54;3.63;;;2.65;;
74523;SDS011;63074;44.696;10.358;2023-07-29T08:33:20;4.90;;;2.25;;
74523;SDS011;63074;44.696;10.358;2023-07-29T08:35:46;4.38;;;2.63;;
74523;SDS011;63074;44.696;10.358;2023-07-29T08:40:41;6.75;;;3.10;;
74523;SDS011;63074;44.696;10.358;2023-07-29T08:43:08;4.13;;;3.10;;
74523;SDS011;63074;44.696;10.358;2023-07-29T08:45:35;4.38;;;2.67;;
74523;SDS011;63074;44.696;10.358;2023-07-29T08:48:07;6.07;;;2.97;;
74523;SDS011;63074;44.696;10.358;2023-07-29T08:50:33;5.65;;;3.45;;
74523;SDS011;63074;44.696;10.358;2023-07-29T08:53:00;6.43;;;3.30;;
74523;SDS011;63074;44.696;10.358;2023-07-29T08:55:26;6.40;;;3.03;;
74523;SDS011;63074;44.696;10.358;2023-07-29T08:57:52;5.15;;;2.40;;
74523;SDS011;63074;44.696;10.358;2023-07-29T09:00:19;5.97;;;2.75;;
74523;SDS011;63074;44.696;10.358;2023-07-29T09:02:46;4.35;;;2.83;;
74523;SDS011;63074;44.696;10.358;2023-07-29T09:07:38;5.47;;;3.05;;
74523;SDS011;63074;44.696;10.358;2023-07-29T09:10:04;4.03;;;2.35;;
74523;SDS011;63074;44.696;10.358;2023-07-29T09:12:30;5.30;;;2.65;;
74523;SDS011;63074;44.696;10.358;2023-07-29T09:14:56;5.22;;;2.63;;
74523;SDS011;63074;44.696;10.358;2023-07-29T09:17:22;6.65;;;3.63;;
74523;SDS011;63074;44.696;10.358;2023-07-29T09:19:49;6.07;;;2.83;;
74523;SDS011;63074;44.696;10.358;2023-07-29T09:22:19;2.95;;;2.20;;
74523;SDS011;63074;44.696;10.358;2023-07-29T09:24:46;4.65;;;3.15;;
74523;SDS011;63074;44.696;10.358;2023-07-29T09:29:38;3.88;;;2.40;;
74523;SDS011;63074;44.696;10.358;2023-07-29T09:34:41;4.38;;;2.70;;
74523;SDS011;63074;44.696;10.358;2023-07-29T09:37:07;3.55;;;2.40;;
74523;SDS011;63074;44.696;10.358;2023-07-29T09:39:33;5.13;;;2.75;;
74523;SDS011;63074;44.696;10.358;2023-07-29T09:41:59;6.78;;;2.92;;
74523;SDS011;63074;44.696;10.358;2023-07-29T09:44:25;6.15;;;2.22;;
74523;SDS011;63074;44.696;10.358;2023-07-29T09:46:51;4.60;;;2.53;;
74523;SDS011;63074;44.696;10.358;2023-07-29T09:49:17;3.50;;;2.45;;
74523;SDS011;63074;44.696;10.358;2023-07-29T09:51:43;5.25;;;2.47;;
74523;SDS011;63074;44.696;10.358;2023-07-29T09:54:09;5.28;;;1.92;;
74523;SDS011;63074;44.696;10.358;2023-07-29T09:56:39;4.65;;;2.80;;
74523;SDS011;63074;44.696;10.358;2023-07-29T09:59:05;3.63;;;2.50;;
74523;SDS011;63074;44.696;10.358;2023-07-29T10:01:31;4.47;;;2.55;;
74523;SDS011;63074;44.696;10.358;2023-07-29T10:03:59;3.25;;;1.88;;
74523;SDS011;63074;44.696;10.358;2023-07-29T10:06:26;3.80;;;1.98;;
74523;SDS011;63074;44.696;10.358;2023-07-29T10:08:53;5.10;;;2.65;;
74523;SDS011;63074;44.696;10.358;2023-07-29T10:11:20;5.97;;;2.80;;
74523;SDS011;63074;44.696;10.358;2023-07-29T10:13:46;4.97;;;2.40;;
74523;SDS011;63074;44.696;10.358;2023-07-29T10:16:13;5.07;;;2.58;;
74523;SDS011;63074;44.696;10.358;2023-07-29T10:18:40;3.58;;;2.20;;
74523;SDS011;63074;44.696;10.358;2023-07-29T10:21:06;3.58;;;2.75;;
74523;SDS011;63074;44.696;10.358;2023-07-29T10:23:34;6.35;;;2.55;;
74523;SDS011;63074;44.696;10.358;2023-07-29T10:26:04;6.65;;;2.38;;
74523;SDS011;63074;44.696;10.358;2023-07-29T10:28:31;5.75;;;2.50;;
74523;SDS011;63074;44.696;10.358;2023-07-29T10:30:58;3.60;;;2.60;;
74523;SDS011;63074;44.696;10.358;2023-07-29T10:33:25;2.47;;;2.03;;
74523;SDS011;63074;44.696;10.358;2023-07-29T10:35:51;3.35;;;2.08;;
74523;SDS011;63074;44.696;10.358;2023-07-29T10:38:18;4.15;;;2.20;;
74523;SDS011;63074;44.696;10.358;2023-07-29T10:40:50;2.80;;;2.20;;
74523;SDS011;63074;44.696;10.358;2023-07-29T10:43:33;4.15;;;2.17;;
74523;SDS011;63074;44.696;10.358;2023-07-29T10:53:39;3.80;;;2.83;;
74523;SDS011;63074;44.696;10.358;2023-07-29T10:56:05;4.97;;;2.25;;
74523;SDS011;63074;44.696;10.358;2023-07-29T10:58:31;4.72;;;2.35;;
74523;SDS011;63074;44.696;10.358;2023-07-29T11:00:57;4.00;;;2.45;;
74523;SDS011;63074;44.696;10.358;2023-07-29T11:03:23;3.67;;;2.25;;
74523;SDS011;63074;44.696;10.358;2023-07-29T11:05:53;2.97;;;2.03;;
74523;SDS011;63074;44.696;10.358;2023-07-29T11:13:30;3.97;;;2.58;;
74523;SDS011;63074;44.696;10.358;2023-07-29T11:15:57;2.95;;;1.98;;
74523;SDS011;63074;44.696;10.358;2023-07-29T11:18:28;4.57;;;3.03;;
74523;SDS011;63074;44.696;10.358;2023-07-29T11:20:54;3.88;;;2.10;;
74523;SDS011;63074;44.696;10.358;2023-07-29T11:23:26;4.13;;;2.13;;
74523;SDS011;63074;44.696;10.358;2023-07-29T11:25:53;4.30;;;2.30;;
74523;SDS011;63074;44.696;10.358;2023-07-29T11:28:19;4.82;;;2.83;;
74523;SDS011;63074;44.696;10.358;2023-07-29T11:30:46;3.58;;;2.45;;
74523;SDS011;63074;44.696;10.358;2023-07-29T11:33:13;3.35;;;2.30;;
74523;SDS011;63074;44.696;10.358;2023-07-29T11:35:39;3.90;;;2.28;;
74523;SDS011;63074;44.696;10.358;2023-07-29T11:38:05;5.53;;;2.15;;
74523;SDS011;63074;44.696;10.358;2023-07-29T11:40:31;3.30;;;2.38;;
74523;SDS011;63074;44.696;10.358;2023-07-29T11:42:57;4.90;;;1.80;;
74523;SDS011;63074;44.696;10.358;2023-07-29T11:45:23;4.63;;;2.67;;
74523;SDS011;63074;44.696;10.358;2023-07-29T11:47:49;2.97;;;1.95;;
74523;SDS011;63074;44.696;10.358;2023-07-29T11:50:15;4.35;;;2.25;;
74523;SDS011;63074;44.696;10.358;2023-07-29T11:52:42;3.92;;;2.90;;
74523;SDS011;63074;44.696;10.358;2023-07-29T11:55:08;3.40;;;2.13;;
74523;SDS011;63074;44.696;10.358;2023-07-29T11:57:36;2.72;;;2.20;;
74523;SDS011;63074;44.696;10.358;2023-07-29T12:00:02;3.00;;;2.38;;
74523;SDS011;63074;44.696;10.358;2023-07-29T12:02:30;4.88;;;2.75;;
74523;SDS011;63074;44.696;10.358;2023-07-29T12:04:56;4.18;;;2.35;;
74523;SDS011;63074;44.696;10.358;2023-07-29T12:07:22;3.30;;;2.08;;
74523;SDS011;63074;44.696;10.358;2023-07-29T12:09:49;2.92;;;2.38;;
74523;SDS011;63074;44.696;10.358;2023-07-29T12:12:16;4.57;;;2.72;;
74523;SDS011;63074;44.696;10.358;2023-07-29T12:14:45;3.58;;;2.67;;
74523;SDS011;63074;44.696;10.358;2023-07-29T12:17:14;4.10;;;2.45;;
74523;SDS011;63074;44.696;10.358;2023-07-29T12:19:41;3.20;;;1.83;;
74523;SDS011;63074;44.696;10.358;2023-07-29T12:22:09;3.00;;;2.00;;
74523;SDS011;63074;44.696;10.358;2023-07-29T12:24:40;3.75;;;1.98;;
74523;SDS011;63074;44.696;10.358;2023-07-29T12:29:40;4.32;;;2.10;;
74523;SDS011;63074;44.696;10.358;2023-07-29T12:32:06;3.28;;;1.75;;
74523;SDS011;63074;44.696;10.358;2023-07-29T12:34:33;3.67;;;2.10;;
74523;SDS011;63074;44.696;10.358;2023-07-29T12:36:59;4.30;;;2.20;;
74523;SDS011;63074;44.696;10.358;2023-07-29T12:39:29;4.55;;;2.00;;
74523;SDS011;63074;44.696;10.358;2023-07-29T12:41:56;3.35;;;1.50;;
74523;SDS011;63074;44.696;10.358;2023-07-29T12:44:35;3.10;;;2.20;;
74523;SDS011;63074;44.696;10.358;2023-07-29T12:47:02;4.95;;;2.83;;
74523;SDS011;63074;44.696;10.358;2023-07-29T12:49:29;3.22;;;1.70;;
74523;SDS011;63074;44.696;10.358;2023-07-29T12:51:58;4.00;;;2.42;;
74523;SDS011;63074;44.696;10.358;2023-07-29T12:54:25;4.53;;;2.00;;
74523;SDS011;63074;44.696;10.358;2023-07-29T12:56:51;3.58;;;2.17;;
74523;SDS011;63074;44.696;10.358;2023-07-29T12:59:17;4.03;;;1.88;;
74523;SDS011;63074;44.696;10.358;2023-07-29T13:01:43;2.72;;;2.17;;
74523;SDS011;63074;44.696;10.358;2023-07-29T13:04:10;4.47;;;2.50;;
74523;SDS011;63074;44.696;10.358;2023-07-29T13:06:36;5.07;;;2.20;;
74523;SDS011;63074;44.696;10.358;2023-07-29T13:09:02;4.82;;;2.05;;
74523;SDS011;63074;44.696;10.358;2023-07-29T13:11:28;3.15;;;2.08;;
74523;SDS011;63074;44.696;10.358;2023-07-29T13:13:54;4.32;;;2.05;;
74523;SDS011;63074;44.696;10.358;2023-07-29T13:16:20;3.28;;;1.83;;
74523;SDS011;63074;44.696;10.358;2023-07-29T13:18:46;2.85;;;1.70;;
74523;SDS011;63074;44.696;10.358;2023-07-29T13:23:38;3.72;;;2.50;;
74523;SDS011;63074;44.696;10.358;2023-07-29T13:26:04;4.82;;;2.70;;
74523;SDS011;63074;44.696;10.358;2023-07-29T13:28:31;4.20;;;2.58;;
74523;SDS011;63074;44.696;10.358;2023-07-29T13:30:57;3.25;;;1.75;;
74523;SDS011;63074;44.696;10.358;2023-07-29T13:33:23;3.90;;;2.92;;
74523;SDS011;63074;44.696;10.358;2023-07-29T13:35:49;4.50;;;2.55;;
74523;SDS011;63074;44.696;10.358;2023-07-29T13:38:15;5.00;;;2.35;;
74523;SDS011;63074;44.696;10.358;2023-07-29T13:40:41;3.00;;;2.10;;
74523;SDS011;63074;44.696;10.358;2023-07-29T13:43:07;3.10;;;2.55;;
74523;SDS011;63074;44.696;10.358;2023-07-29T13:45:34;3.53;;;2.25;;
74523;SDS011;63074;44.696;10.358;2023-07-29T13:48:00;5.75;;;3.25;;
74523;SDS011;63074;44.696;10.358;2023-07-29T13:50:26;3.60;;;2.35;;
74523;SDS011;63074;44.696;10.358;2023-07-29T13:52:52;4.93;;;2.15;;
74523;SDS011;63074;44.696;10.358;2023-07-29T13:55:18;4.38;;;2.60;;
74523;SDS011;63074;44.696;10.358;2023-07-29T13:57:44;4.78;;;2.05;;
74523;SDS011;63074;44.696;10.358;2023-07-29T14:00:11;2.85;;;1.90;;
74523;SDS011;63074;44.696;10.358;2023-07-29T14:02:37;4.80;;;2.28;;
74523;SDS011;63074;44.696;10.358;2023-07-29T14:05:03;4.40;;;2.50;;
74523;SDS011;63074;44.696;10.358;2023-07-29T14:07:29;3.90;;;2.60;;
74523;SDS011;63074;44.696;10.358;2023-07-29T14:09:55;4.43;;;1.77;;
74523;SDS011;63074;44.696;10.358;2023-07-29T14:12:21;3.53;;;2.40;;
74523;SDS011;63074;44.696;10.358;2023-07-29T14:14:47;4.07;;;2.20;;
74523;SDS011;63074;44.696;10.358;2023-07-29T14:17:13;3.67;;;2.40;;
74523;SDS011;63074;44.696;10.358;2023-07-29T14:19:39;2.85;;;1.80;;
74523;SDS011;63074;44.696;10.358;2023-07-29T14:22:05;4.10;;;2.53;;
74523;SDS011;63074;44.696;10.358;2023-07-29T14:24:31;3.08;;;2.60;;
74523;SDS011;63074;44.696;10.358;2023-07-29T14:26:57;3.92;;;2.47;;
74523;SDS011;63074;44.696;10.358;2023-07-29T14:29:23;2.88;;;2.30;;
74523;SDS011;63074;44.696;10.358;2023-07-29T14:31:49;3.45;;;2.75;;
74523;SDS011;63074;44.696;10.358;2023-07-29T14:34:15;3.72;;;2.53;;
74523;SDS011;63074;44.696;10.358;2023-07-29T14:36:42;3.25;;;2.63;;
74523;SDS011;63074;44.696;10.358;2023-07-29T14:39:08;2.67;;;2.00;;
74523;SDS011;63074;44.696;10.358;2023-07-29T14:41:34;3.30;;;2.60;;
74523;SDS011;63074;44.696;10.358;2023-07-29T14:44:00;3.90;;;2.38;;
74523;SDS011;63074;44.696;10.358;2023-07-29T14:46:26;2.95;;;1.98;;
74523;SDS011;63074;44.696;10.358;2023-07-29T14:48:52;3.50;;;2.25;;
74523;SDS011;63074;44.696;10.358;2023-07-29T14:51:18;5.63;;;2.53;;
74523;SDS011;63074;44.696;10.358;2023-07-29T14:53:44;4.05;;;1.90;;
74523;SDS011;63074;44.696;10.358;2023-07-29T14:56:10;5.45;;;2.65;;
74523;SDS011;63074;44.696;10.358;2023-07-29T14:58:36;3.63;;;2.47;;
74523;SDS011;63074;44.696;10.358;2023-07-29T15:01:02;3.38;;;2.28;;
74523;SDS011;63074;44.696;10.358;2023-07-29T15:03:28;3.90;;;2.55;;
74523;SDS011;63074;44.696;10.358;2023-07-29T15:05:55;3.97;;;2.38;;
74523;SDS011;63074;44.696;10.358;2023-07-29T15:08:23;3.70;;;2.50;;
74523;SDS011;63074;44.696;10.358;2023-07-29T15:10:50;3.58;;;2.58;;
74523;SDS011;63074;44.696;10.358;2023-07-29T15:13:16;3.78;;;2.72;;
74523;SDS011;63074;44.696;10.358;2023-07-29T15:15:42;2.95;;;2.58;;
74523;SDS011;63074;44.696;10.358;2023-07-29T15:18:08;3.13;;;2.33;;
74523;SDS011;63074;44.696;10.358;2023-07-29T15:20:34;3.53;;;2.60;;
74523;SDS011;63074;44.696;10.358;2023-07-29T15:23:01;4.40;;;3.30;;